sensor_id;sensor_type;location;lat;lon;timestamp;pressure;altitude;pressure_sealevel;temperature;humidity
35892;BME280;21993;42.672;23.296;2024-02-15T00:01:09;95128.28;;;6.41;54.79
35892;BME280;21993;42.672;23.296;2024-02-15T00:03:35;95131.22;;;6.49;54.80
35892;BME280;21993;42.672;23.296;2024-02-15T00:06:01;95129.84;;;6.43;54.61
35892;BME280;21993;42.672;23.296;2024-02-15T00:08:31;95130.06;;;6.40;55.14
35892;BME280;21993;42.672;23.296;2024-02-15T00:10:58;95131.00;;;6.39;55.10
35892;BME280;21993;42.672;23.296;2024-02-15T00:13:23;95131.41;;;6.46;54.84
35892;BME280;21993;42.672;23.296;2024-02-15T00:16:13;95123.50;;;6.47;54.74
35892;BME280;21993;42.672;23.296;2024-02-15T00:18:50;95136.22;;;6.39;55.21
35892;BME280;21993;42.672;23.296;2024-02-15T00:21:15;95137.44;;;6.34;55.10
35892;BME280;21993;42.672;23.296;2024-02-15T00:23:41;95132.22;;;6.34;55.11
35892;BME280;21993;42.672;23.296;2024-02-15T00:26:07;95136.72;;;6.32;54.56
35892;BME280;21993;42.672;23.296;2024-02-15T00:28:34;95131.00;;;6.12;55.12
35892;BME280;21993;42.672;23.296;2024-02-15T00:31:00;95144.34;;;6.08;55.26
35892;BME280;21993;42.672;23.296;2024-02-15T00:33:25;95146.38;;;6.30;55.19
35892;BME280;21993;42.672;23.296;2024-02-15T00:35:51;95150.06;;;6.13;55.09
35892;BME280;21993;42.672;23.296;2024-02-15T00:38:20;95149.41;;;6.24;54.92
35892;BME280;21993;42.672;23.296;2024-02-15T00:40:48;95146.38;;;6.30;54.71
35892;BME280;21993;42.672;23.296;2024-02-15T00:43:14;95149.47;;;6.22;55.29
35892;BME280;21993;42.672;23.296;2024-02-15T00:45:40;95144.03;;;6.12;54.98
35892;BME280;21993;42.672;23.296;2024-02-15T00:48:06;95147.28;;;6.16;55.18
35892;BME280;21993;42.672;23.296;2024-02-15T00:50:38;95144.47;;;6.19;54.95
35892;BME280;21993;42.672;23.296;2024-02-15T00:53:15;95143.03;;;6.28;55.26
35892;BME280;21993;42.672;23.296;2024-02-15T00:55:42;95148.25;;;6.28;55.51
35892;BME280;21993;42.672;23.296;2024-02-15T01:00:56;95143.53;;;6.20;55.47
35892;BME280;21993;42.672;23.296;2024-02-15T01:03:29;95149.56;;;6.20;55.35
35892;BME280;21993;42.672;23.296;2024-02-15T01:06:08;95150.06;;;6.13;55.46
35892;BME280;21993;42.672;23.296;2024-02-15T01:08:36;95153.97;;;6.20;54.97
35892;BME280;21993;42.672;23.296;2024-02-15T01:11:02;95145.53;;;6.29;54.69
35892;BME280;21993;42.672;23.296;2024-02-15T01:13:30;95146.38;;;6.30;55.07
35892;BME280;21993;42.672;23.296;2024-02-15T01:15:55;95140.31;;;6.16;55.20
35892;BME280;21993;42.672;23.296;2024-02-15T01:18:21;95146.88;;;6.22;54.82
35892;BME280;21993;42.672;23.296;2024-02-15T01:20:46;95137.19;;;6.24;54.72
35892;BME280;21993;42.672;23.296;2024-02-15T01:23:12;95142.41;;;6.24;54.77
35892;BME280;21993;42.672;23.296;2024-02-15T01:25:37;95137.03;;;6.13;55.11
35892;BME280;21993;42.672;23.296;2024-02-15T01:28:05;95135.59;;;6.21;55.17
35892;BME280;21993;42.672;23.296;2024-02-15T01:30:30;95148.41;;;6.12;55.05
35892;BME280;21993;42.672;23.296;2024-02-15T01:32:57;95140.09;;;6.19;55.28
35892;BME280;21993;42.672;23.296;2024-02-15T01:35:35;95140.81;;;6.21;54.57
35892;BME280;21993;42.672;23.296;2024-02-15T01:38:09;95135.84;;;6.04;55.42
35892;BME280;21993;42.672;23.296;2024-02-15T01:40:36;95143.09;;;6.13;55.67
35892;BME280;21993;42.672;23.296;2024-02-15T01:43:04;95141.53;;;6.11;55.33
35892;BME280;21993;42.672;23.296;2024-02-15T01:45:32;95132.94;;;6.23;54.92
35892;BME280;21993;42.672;23.296;2024-02-15T01:47:58;95138.03;;;6.25;55.06
35892;BME280;21993;42.672;23.296;2024-02-15T01:50:25;95140.66;;;6.25;54.85
35892;BME280;21993;42.672;23.296;2024-02-15T01:52:55;95151.06;;;6.25;55.21
35892;BME280;21993;42.672;23.296;2024-02-15T01:55:22;95140.53;;;6.26;55.26
35892;BME280;21993;42.672;23.296;2024-02-15T01:57:48;95147.22;;;6.30;54.79
35892;BME280;21993;42.672;23.296;2024-02-15T02:00:23;95152.88;;;6.37;54.74
35892;BME280;21993;42.672;23.296;2024-02-15T02:02:49;95135.03;;;6.31;54.35
35892;BME280;21993;42.672;23.296;2024-02-15T02:05:15;95139.97;;;6.21;54.92
35892;BME280;21993;42.672;23.296;2024-02-15T02:07:41;95146.13;;;6.20;55.21
35892;BME280;21993;42.672;23.296;2024-02-15T02:10:07;95147.81;;;6.21;55.04
35892;BME280;21993;42.672;23.296;2024-02-15T02:12:34;95145.84;;;6.25;55.02
35892;BME280;21993;42.672;23.296;2024-02-15T02:14:59;95150.97;;;5.99;55.41
35892;BME280;21993;42.672;23.296;2024-02-15T02:17:25;95151.41;;;6.06;55.45
35892;BME280;21993;42.672;23.296;2024-02-15T02:19:50;95147.13;;;6.05;55.62
35892;BME280;21993;42.672;23.296;2024-02-15T02:22:17;95157.06;;;6.12;54.96
35892;BME280;21993;42.672;23.296;2024-02-15T02:27:21;95159.88;;;6.09;55.11
35892;BME280;21993;42.672;23.296;2024-02-15T02:29:47;95151.56;;;6.17;54.81
35892;BME280;21993;42.672;23.296;2024-02-15T02:32:12;95153.97;;;6.20;54.96
35892;BME280;21993;42.672;23.296;2024-02-15T02:34:38;95149.88;;;6.16;55.04
35892;BME280;21993;42.672;23.296;2024-02-15T02:37:06;95153.78;;;6.23;55.06
35892;BME280;21993;42.672;23.296;2024-02-15T02:39:34;95165.06;;;6.09;55.50
35892;BME280;21993;42.672;23.296;2024-02-15T02:41:59;95149.34;;;6.11;55.13
35892;BME280;21993;42.672;23.296;2024-02-15T02:44:25;95166.28;;;6.04;55.24
35892;BME280;21993;42.672;23.296;2024-02-15T02:46:51;95158.78;;;5.99;55.29
35892;BME280;21993;42.672;23.296;2024-02-15T02:49:16;95155.88;;;5.89;55.51
35892;BME280;21993;42.672;23.296;2024-02-15T02:51:42;95163.44;;;5.94;55.26
35892;BME280;21993;42.672;23.296;2024-02-15T02:54:08;95172.09;;;5.95;55.40
35892;BME280;21993;42.672;23.296;2024-02-15T02:56:33;95169.66;;;5.77;55.76
35892;BME280;21993;42.672;23.296;2024-02-15T02:58:59;95168.16;;;5.87;55.41
35892;BME280;21993;42.672;23.296;2024-02-15T03:01:24;95162.00;;;5.88;55.41
35892;BME280;21993;42.672;23.296;2024-02-15T03:03:53;95170.53;;;5.92;55.38
35892;BME280;21993;42.672;23.296;2024-02-15T03:06:21;95160.00;;;5.93;55.88
35892;BME280;21993;42.672;23.296;2024-02-15T03:08:50;95172.28;;;5.91;55.79
35892;BME280;21993;42.672;23.296;2024-02-15T03:11:19;95171.16;;;5.81;55.45
35892;BME280;21993;42.672;23.296;2024-02-15T03:13:45;95170.41;;;5.93;56.07
35892;BME280;21993;42.672;23.296;2024-02-15T03:16:11;95177.56;;;5.90;55.55
35892;BME280;21993;42.672;23.296;2024-02-15T03:18:36;95174.78;;;5.93;55.57
35892;BME280;21993;42.672;23.296;2024-02-15T03:21:02;95168.91;;;6.04;55.63
35892;BME280;21993;42.672;23.296;2024-02-15T03:23:29;95177.84;;;5.85;55.62
35892;BME280;21993;42.672;23.296;2024-02-15T03:25:56;95183.06;;;5.85;55.96
35892;BME280;21993;42.672;23.296;2024-02-15T03:28:21;95179.50;;;5.86;55.93
35892;BME280;21993;42.672;23.296;2024-02-15T03:30:49;95185.03;;;5.82;55.88
35892;BME280;21993;42.672;23.296;2024-02-15T03:33:15;95188.47;;;5.82;56.40
35892;BME280;21993;42.672;23.296;2024-02-15T03:35:41;95178.44;;;5.90;55.91
35892;BME280;21993;42.672;23.296;2024-02-15T03:38:07;95178.34;;;5.92;55.93
35892;BME280;21993;42.672;23.296;2024-02-15T03:40:32;95180.63;;;5.97;55.70
35892;BME280;21993;42.672;23.296;2024-02-15T03:42:59;95183.78;;;6.02;55.33
35892;BME280;21993;42.672;23.296;2024-02-15T03:45:25;95184.63;;;6.02;55.47
35892;BME280;21993;42.672;23.296;2024-02-15T03:47:54;95189.75;;;6.04;55.73
35892;BME280;21993;42.672;23.296;2024-02-15T03:50:21;95183.78;;;6.02;55.34
35892;BME280;21993;42.672;23.296;2024-02-15T03:52:47;95186.41;;;6.02;55.29
35892;BME280;21993;42.672;23.296;2024-02-15T03:55:13;95185.66;;;6.00;55.40
35892;BME280;21993;42.672;23.296;2024-02-15T03:57:40;95182.00;;;5.88;55.46
35892;BME280;21993;42.672;23.296;2024-02-15T04:00:07;95187.31;;;5.86;55.79
35892;BME280;21993;42.672;23.296;2024-02-15T04:02:33;95186.50;;;5.86;55.75
35892;BME280;21993;42.672;23.296;2024-02-15T04:05:12;95181.59;;;5.81;56.05
35892;BME280;21993;42.672;23.296;2024-02-15T04:07:40;95188.19;;;5.73;56.10
35892;BME280;21993;42.672;23.296;2024-02-15T04:10:06;95189.41;;;5.81;55.78
35892;BME280;21993;42.672;23.296;2024-02-15T04:12:33;95184.81;;;5.71;55.76
35892;BME280;21993;42.672;23.296;2024-02-15T04:14:59;95192.00;;;5.81;56.00
35892;BME280;21993;42.672;23.296;2024-02-15T04:17:30;95182.00;;;5.88;55.13
35892;BME280;21993;42.672;23.296;2024-02-15T04:19:58;95181.13;;;5.60;56.45
35892;BME280;21993;42.672;23.296;2024-02-15T04:22:24;95178.81;;;5.56;56.09
35892;BME280;21993;42.672;23.296;2024-02-15T04:24:49;95184.00;;;5.70;56.63
35892;BME280;21993;42.672;23.296;2024-02-15T04:27:15;95197.59;;;5.75;56.08
35892;BME280;21993;42.672;23.296;2024-02-15T04:29:41;95192.75;;;5.83;55.86
35892;BME280;21993;42.672;23.296;2024-02-15T04:32:09;95198.41;;;5.76;55.95
35892;BME280;21993;42.672;23.296;2024-02-15T04:34:36;95192.00;;;5.81;56.14
35892;BME280;21993;42.672;23.296;2024-02-15T04:37:03;95200.66;;;5.82;55.20
35892;BME280;21993;42.672;23.296;2024-02-15T04:39:35;95196.56;;;5.63;56.54
35892;BME280;21993;42.672;23.296;2024-02-15T04:42:02;95204.56;;;5.75;56.14
35892;BME280;21993;42.672;23.296;2024-02-15T04:44:28;95202.69;;;5.62;56.67
35892;BME280;21993;42.672;23.296;2024-02-15T04:46:54;95201.22;;;5.73;56.39
35892;BME280;21993;42.672;23.296;2024-02-15T04:49:20;95209.09;;;5.71;56.45
35892;BME280;21993;42.672;23.296;2024-02-15T04:51:46;95200.56;;;5.55;56.45
35892;BME280;21993;42.672;23.296;2024-02-15T04:54:13;95205.69;;;5.56;56.26
35892;BME280;21993;42.672;23.296;2024-02-15T04:56:39;95206.06;;;5.50;56.62
35892;BME280;21993;42.672;23.296;2024-02-15T04:59:05;95216.56;;;5.49;56.88
35892;BME280;21993;42.672;23.296;2024-02-15T05:01:34;95229.88;;;5.58;56.90
35892;BME280;21993;42.672;23.296;2024-02-15T05:04:01;95217.09;;;5.54;56.63
35892;BME280;21993;42.672;23.296;2024-02-15T05:06:31;95229.75;;;5.31;57.03
35892;BME280;21993;42.672;23.296;2024-02-15T05:08:57;95234.56;;;5.37;57.00
35892;BME280;21993;42.672;23.296;2024-02-15T05:11:25;95234.50;;;5.39;56.97
35892;BME280;21993;42.672;23.296;2024-02-15T05:13:51;95234.47;;;5.25;57.51
35892;BME280;21993;42.672;23.296;2024-02-15T05:16:18;95236.91;;;5.42;57.02
35892;BME280;21993;42.672;23.296;2024-02-15T05:18:44;95243.78;;;5.43;56.77
35892;BME280;21993;42.672;23.296;2024-02-15T05:21:11;95241.88;;;5.47;56.84
35892;BME280;21993;42.672;23.296;2024-02-15T05:23:38;95243.22;;;5.38;57.01
35892;BME280;21993;42.672;23.296;2024-02-15T05:26:08;95244.34;;;5.34;57.29
35892;BME280;21993;42.672;23.296;2024-02-15T05:28:35;95242.13;;;5.42;57.10
35892;BME280;21993;42.672;23.296;2024-02-15T05:31:14;95232.63;;;5.27;56.98
35892;BME280;21993;42.672;23.296;2024-02-15T05:33:45;95247.13;;;5.45;56.66
35892;BME280;21993;42.672;23.296;2024-02-15T05:36:13;95251.69;;;5.42;57.11
35892;BME280;21993;42.672;23.296;2024-02-15T05:38:40;95246.97;;;5.48;56.56
35892;BME280;21993;42.672;23.296;2024-02-15T05:41:06;95255.78;;;5.31;57.63
35892;BME280;21993;42.672;23.296;2024-02-15T05:43:33;95264.91;;;5.39;57.44
35892;BME280;21993;42.672;23.296;2024-02-15T05:46:04;95259.16;;;5.48;57.29
35892;BME280;21993;42.672;23.296;2024-02-15T05:48:33;95263.22;;;5.52;57.24
35892;BME280;21993;42.672;23.296;2024-02-15T05:51:06;95261.81;;;5.46;56.55
35892;BME280;21993;42.672;23.296;2024-02-15T05:53:32;95268.63;;;5.49;56.29
35892;BME280;21993;42.672;23.296;2024-02-15T05:56:08;95261.09;;;5.44;57.22
35892;BME280;21993;42.672;23.296;2024-02-15T05:58:35;95262.84;;;5.44;57.35
35892;BME280;21993;42.672;23.296;2024-02-15T06:01:03;95284.16;;;5.50;56.71
35892;BME280;21993;42.672;23.296;2024-02-15T06:03:33;95269.91;;;5.42;56.70
35892;BME280;21993;42.672;23.296;2024-02-15T06:06:02;95263.19;;;5.23;57.15
35892;BME280;21993;42.672;23.296;2024-02-15T06:08:32;95268.66;;;5.19;57.30
35892;BME280;21993;42.672;23.296;2024-02-15T06:10:58;95275.81;;;5.15;58.25
35892;BME280;21993;42.672;23.296;2024-02-15T06:13:25;95282.81;;;5.29;57.48
35892;BME280;21993;42.672;23.296;2024-02-15T06:15:51;95273.91;;;5.33;57.30
35892;BME280;21993;42.672;23.296;2024-02-15T06:18:21;95279.94;;;5.33;57.24
35892;BME280;21993;42.672;23.296;2024-02-15T06:20:49;95275.31;;;5.39;57.48
35892;BME280;21993;42.672;23.296;2024-02-15T06:23:19;95281.13;;;5.28;57.68
35892;BME280;21993;42.672;23.296;2024-02-15T06:25:46;95292.31;;;5.44;57.15
35892;BME280;21993;42.672;23.296;2024-02-15T06:28:14;95292.41;;;5.43;57.00
35892;BME280;21993;42.672;23.296;2024-02-15T06:30:59;95294.19;;;5.42;57.27
35892;BME280;21993;42.672;23.296;2024-02-15T06:33:43;95290.56;;;5.30;56.92
35892;BME280;21993;42.672;23.296;2024-02-15T06:36:26;95288.34;;;5.39;57.24
35892;BME280;21993;42.672;23.296;2024-02-15T06:39:10;95297.25;;;5.34;57.23
35892;BME280;21993;42.672;23.296;2024-02-15T06:41:55;95312.50;;;5.41;57.04
35892;BME280;21993;42.672;23.296;2024-02-15T06:44:21;95311.97;;;5.20;57.61
35892;BME280;21993;42.672;23.296;2024-02-15T06:46:50;95312.25;;;5.15;57.38
35892;BME280;21993;42.672;23.296;2024-02-15T06:49:16;95311.91;;;5.21;57.26
35892;BME280;21993;42.672;23.296;2024-02-15T06:51:42;95308.28;;;5.38;57.70
35892;BME280;21993;42.672;23.296;2024-02-15T06:54:08;95305.25;;;5.46;57.05
35892;BME280;21993;42.672;23.296;2024-02-15T06:56:37;95308.25;;;5.54;57.10
35892;BME280;21993;42.672;23.296;2024-02-15T06:59:06;95308.06;;;5.57;57.16
35892;BME280;21993;42.672;23.296;2024-02-15T07:01:33;95312.50;;;5.55;56.50
35892;BME280;21993;42.672;23.296;2024-02-15T07:03:59;95313.78;;;5.63;56.76
35892;BME280;21993;42.672;23.296;2024-02-15T07:06:26;95308.66;;;5.76;56.73
35892;BME280;21993;42.672;23.296;2024-02-15T07:08:53;95312.47;;;5.85;56.42
35892;BME280;21993;42.672;23.296;2024-02-15T07:11:21;95306.63;;;5.81;55.72
35892;BME280;21993;42.672;23.296;2024-02-15T07:13:48;95304.38;;;5.89;56.33
35892;BME280;21993;42.672;23.296;2024-02-15T07:16:13;95306.28;;;6.02;55.50
35892;BME280;21993;42.672;23.296;2024-02-15T07:18:40;95293.34;;;6.00;55.20
35892;BME280;21993;42.672;23.296;2024-02-15T07:21:06;95299.28;;;6.02;55.38
35892;BME280;21993;42.672;23.296;2024-02-15T07:23:36;95294.91;;;6.03;55.58
35892;BME280;21993;42.672;23.296;2024-02-15T07:26:02;95294.44;;;6.10;55.45
35892;BME280;21993;42.672;23.296;2024-02-15T07:28:29;95292.00;;;6.36;55.09
35892;BME280;21993;42.672;23.296;2024-02-15T07:30:56;95284.19;;;6.63;54.14
35892;BME280;21993;42.672;23.296;2024-02-15T07:33:22;95288.16;;;6.83;53.56
35892;BME280;21993;42.672;23.296;2024-02-15T07:35:49;95283.19;;;6.92;53.05
35892;BME280;21993;42.672;23.296;2024-02-15T07:38:18;95285.31;;;7.13;53.21
35892;BME280;21993;42.672;23.296;2024-02-15T07:40:44;95274.41;;;7.33;52.56
35892;BME280;21993;42.672;23.296;2024-02-15T07:43:09;95274.81;;;7.27;51.26
35892;BME280;21993;42.672;23.296;2024-02-15T07:45:35;95290.91;;;7.33;51.64
35892;BME280;21993;42.672;23.296;2024-02-15T07:48:05;95264.81;;;7.59;50.41
35892;BME280;21993;42.672;23.296;2024-02-15T07:50:31;95269.53;;;7.67;51.55
35892;BME280;21993;42.672;23.296;2024-02-15T07:52:57;95279.56;;;7.85;50.15
35892;BME280;21993;42.672;23.296;2024-02-15T07:55:23;95272.81;;;8.07;49.72
35892;BME280;21993;42.672;23.296;2024-02-15T07:57:50;95270.81;;;8.23;49.44
35892;BME280;21993;42.672;23.296;2024-02-15T08:00:16;95271.34;;;8.41;48.67
35892;BME280;21993;42.672;23.296;2024-02-15T08:02:45;95277.91;;;8.59;48.58
35892;BME280;21993;42.672;23.296;2024-02-15T08:05:11;95273.50;;;8.60;48.74
35892;BME280;21993;42.672;23.296;2024-02-15T08:07:41;95273.44;;;8.72;49.06
35892;BME280;21993;42.672;23.296;2024-02-15T08:10:07;95266.81;;;8.80;48.47
35892;BME280;21993;42.672;23.296;2024-02-15T08:12:41;95261.53;;;8.92;48.01
35892;BME280;21993;42.672;23.296;2024-02-15T08:15:09;95270.66;;;9.11;47.52
35892;BME280;21993;42.672;23.296;2024-02-15T08:17:46;95266.69;;;9.29;46.59
35892;BME280;21993;42.672;23.296;2024-02-15T08:20:12;95256.47;;;9.37;46.87
35892;BME280;21993;42.672;23.296;2024-02-15T08:22:38;95258.88;;;9.51;46.58
35892;BME280;21993;42.672;23.296;2024-02-15T08:25:09;95262.94;;;9.55;46.06
35892;BME280;21993;42.672;23.296;2024-02-15T08:27:40;95248.22;;;9.77;46.43
35892;BME280;21993;42.672;23.296;2024-02-15T08:30:12;95250.13;;;9.97;45.62
35892;BME280;21993;42.672;23.296;2024-02-15T08:32:39;95249.78;;;10.13;45.78
35892;BME280;21993;42.672;23.296;2024-02-15T08:35:06;95250.13;;;10.20;45.30
35892;BME280;21993;42.672;23.296;2024-02-15T08:37:32;95258.41;;;10.26;45.67
35892;BME280;21993;42.672;23.296;2024-02-15T08:40:10;95262.66;;;10.38;44.89
35892;BME280;21993;42.672;23.296;2024-02-15T08:42:41;95249.00;;;10.67;44.51
35892;BME280;21993;42.672;23.296;2024-02-15T08:45:07;95247.44;;;10.87;44.34
35892;BME280;21993;42.672;23.296;2024-02-15T08:47:37;95250.84;;;10.98;44.17
35892;BME280;21993;42.672;23.296;2024-02-15T08:50:03;95241.28;;;10.97;43.63
35892;BME280;21993;42.672;23.296;2024-02-15T08:52:30;95251.81;;;10.97;43.69
35892;BME280;21993;42.672;23.296;2024-02-15T08:54:55;95243.88;;;11.09;43.45
35892;BME280;21993;42.672;23.296;2024-02-15T08:57:23;95241.09;;;11.21;43.34
35892;BME280;21993;42.672;23.296;2024-02-15T08:59:49;95247.56;;;11.38;42.54
35892;BME280;21993;42.672;23.296;2024-02-15T09:02:18;95237.88;;;11.60;42.42
35892;BME280;21993;42.672;23.296;2024-02-15T09:05:02;95237.69;;;11.72;42.95
35892;BME280;21993;42.672;23.296;2024-02-15T09:07:27;95247.13;;;11.96;42.19
35892;BME280;21993;42.672;23.296;2024-02-15T09:09:53;95248.66;;;11.98;41.85
35892;BME280;21993;42.672;23.296;2024-02-15T09:12:20;95230.59;;;12.15;41.86
35892;BME280;21993;42.672;23.296;2024-02-15T09:14:45;95229.53;;;12.27;41.45
35892;BME280;21993;42.672;23.296;2024-02-15T09:17:13;95231.66;;;12.43;40.70
35892;BME280;21993;42.672;23.296;2024-02-15T09:19:39;95231.81;;;12.51;41.29
35892;BME280;21993;42.672;23.296;2024-02-15T09:22:04;95213.56;;;12.68;40.91
35892;BME280;21993;42.672;23.296;2024-02-15T09:24:32;95226.72;;;12.68;40.29
35892;BME280;21993;42.672;23.296;2024-02-15T09:27:00;95217.91;;;12.79;39.75
35892;BME280;21993;42.672;23.296;2024-02-15T09:29:30;95231.09;;;12.99;39.53
35892;BME280;21993;42.672;23.296;2024-02-15T09:31:58;95225.53;;;13.02;39.79
35892;BME280;21993;42.672;23.296;2024-02-15T09:34:24;95220.88;;;13.24;40.05
35892;BME280;21993;42.672;23.296;2024-02-15T09:36:50;95221.69;;;13.35;39.18
35892;BME280;21993;42.672;23.296;2024-02-15T09:39:15;95209.44;;;13.53;38.75
35892;BME280;21993;42.672;23.296;2024-02-15T09:41:42;95208.34;;;13.65;39.20
35892;BME280;21993;42.672;23.296;2024-02-15T09:44:08;95213.91;;;13.62;38.38
35892;BME280;21993;42.672;23.296;2024-02-15T09:46:42;95205.13;;;13.62;38.95
35892;BME280;21993;42.672;23.296;2024-02-15T09:49:11;95204.34;;;13.98;38.50
35892;BME280;21993;42.672;23.296;2024-02-15T09:51:37;95210.97;;;14.12;38.36
35892;BME280;21993;42.672;23.296;2024-02-15T09:54:13;95206.63;;;14.21;37.16
35892;BME280;21993;42.672;23.296;2024-02-15T09:56:47;95206.25;;;14.43;37.05
35892;BME280;21993;42.672;23.296;2024-02-15T09:59:15;95209.59;;;14.45;36.83
35892;BME280;21993;42.672;23.296;2024-02-15T10:01:42;95210.41;;;14.46;37.11
35892;BME280;21993;42.672;23.296;2024-02-15T10:04:11;95207.06;;;14.53;37.26
35892;BME280;21993;42.672;23.296;2024-02-15T10:06:41;95188.03;;;14.50;37.02
35892;BME280;21993;42.672;23.296;2024-02-15T10:09:26;95192.53;;;14.67;36.34
35892;BME280;21993;42.672;23.296;2024-02-15T10:11:55;95190.13;;;14.91;36.04
35892;BME280;21993;42.672;23.296;2024-02-15T10:14:22;95181.81;;;15.04;35.89
35892;BME280;21993;42.672;23.296;2024-02-15T10:16:48;95172.09;;;15.23;35.81
35892;BME280;21993;42.672;23.296;2024-02-15T10:19:14;95169.72;;;15.19;35.72
35892;BME280;21993;42.672;23.296;2024-02-15T10:21:41;95169.28;;;15.24;35.52
35892;BME280;21993;42.672;23.296;2024-02-15T10:24:08;95161.84;;;15.28;35.59
35892;BME280;21993;42.672;23.296;2024-02-15T10:26:34;95160.78;;;15.56;35.42
35892;BME280;21993;42.672;23.296;2024-02-15T10:29:10;95153.59;;;15.66;35.14
35892;BME280;21993;42.672;23.296;2024-02-15T10:31:38;95159.19;;;15.89;34.99
35892;BME280;21993;42.672;23.296;2024-02-15T10:34:07;95155.47;;;16.08;34.51
35892;BME280;21993;42.672;23.296;2024-02-15T10:36:33;95153.28;;;16.03;34.46
35892;BME280;21993;42.672;23.296;2024-02-15T10:39:17;95153.91;;;16.23;34.16
35892;BME280;21993;42.672;23.296;2024-02-15T10:41:54;95152.31;;;15.79;35.18
35892;BME280;21993;42.672;23.296;2024-02-15T10:44:20;95156.25;;;16.00;35.13
35892;BME280;21993;42.672;23.296;2024-02-15T10:46:47;95141.13;;;16.19;34.81
35892;BME280;21993;42.672;23.296;2024-02-15T10:49:20;95145.97;;;16.31;34.52
35892;BME280;21993;42.672;23.296;2024-02-15T10:51:50;95145.31;;;16.38;34.60
35892;BME280;21993;42.672;23.296;2024-02-15T10:57:05;95132.13;;;16.54;33.92
35892;BME280;21993;42.672;23.296;2024-02-15T10:59:34;95127.25;;;16.75;33.62
35892;BME280;21993;42.672;23.296;2024-02-15T11:02:26;95133.22;;;16.85;33.68
35892;BME280;21993;42.672;23.296;2024-02-15T11:04:53;95129.75;;;16.93;33.82
35892;BME280;21993;42.672;23.296;2024-02-15T11:07:24;95125.13;;;17.11;33.23
35892;BME280;21993;42.672;23.296;2024-02-15T11:09:52;95130.06;;;17.06;32.96
35892;BME280;21993;42.672;23.296;2024-02-15T11:12:18;95126.78;;;17.04;32.84
35892;BME280;21993;42.672;23.296;2024-02-15T11:14:46;95119.66;;;17.21;32.73
35892;BME280;21993;42.672;23.296;2024-02-15T11:23:03;95116.34;;;17.27;31.79
35892;BME280;21993;42.672;23.296;2024-02-15T11:25:37;95113.16;;;17.32;32.14
35892;BME280;21993;42.672;23.296;2024-02-15T11:30:48;95106.16;;;17.63;31.92
35892;BME280;21993;42.672;23.296;2024-02-15T11:38:31;95106.66;;;17.83;31.82
35892;BME280;21993;42.672;23.296;2024-02-15T11:46:20;95104.81;;;17.92;31.43
35892;BME280;21993;42.672;23.296;2024-02-15T11:48:46;95101.44;;;18.06;31.41
35892;BME280;21993;42.672;23.296;2024-02-15T11:54:00;95096.03;;;18.22;31.28
35892;BME280;21993;42.672;23.296;2024-02-15T11:56:26;95094.91;;;18.25;31.14
35892;BME280;21993;42.672;23.296;2024-02-15T11:59:04;95093.72;;;18.27;31.22
35892;BME280;21993;42.672;23.296;2024-02-15T12:01:32;95086.72;;;18.35;31.18
35892;BME280;21993;42.672;23.296;2024-02-15T12:04:18;95085.91;;;18.26;31.13
35892;BME280;21993;42.672;23.296;2024-02-15T12:07:19;95084.50;;;18.38;30.83
35892;BME280;21993;42.672;23.296;2024-02-15T12:10:03;95076.09;;;18.57;31.20
35892;BME280;21993;42.672;23.296;2024-02-15T12:12:51;95079.25;;;18.61;30.74
35892;BME280;21993;42.672;23.296;2024-02-15T12:15:35;95076.59;;;18.61;30.79
35892;BME280;21993;42.672;23.296;2024-02-15T12:18:19;95071.13;;;18.54;30.89
35892;BME280;21993;42.672;23.296;2024-02-15T12:21:03;95070.66;;;18.51;30.79
35892;BME280;21993;42.672;23.296;2024-02-15T12:23:32;95080.25;;;18.60;30.93
35892;BME280;21993;42.672;23.296;2024-02-15T12:26:01;95078.47;;;18.52;31.11
35892;BME280;21993;42.672;23.296;2024-02-15T12:28:29;95067.94;;;18.67;31.02
35892;BME280;21993;42.672;23.296;2024-02-15T12:30:55;95068.53;;;18.46;30.77
35892;BME280;21993;42.672;23.296;2024-02-15T12:33:24;95070.41;;;18.69;31.07
35892;BME280;21993;42.672;23.296;2024-02-15T12:35:50;95072.84;;;18.78;30.90
35892;BME280;21993;42.672;23.296;2024-02-15T12:38:16;95062.28;;;18.62;30.77
35892;BME280;21993;42.672;23.296;2024-02-15T12:40:42;95065.88;;;18.46;30.88
35892;BME280;21993;42.672;23.296;2024-02-15T12:43:11;95061.16;;;18.25;31.27
35892;BME280;21993;42.672;23.296;2024-02-15T12:45:38;95051.28;;;18.11;31.90
35892;BME280;21993;42.672;23.296;2024-02-15T12:48:06;95060.06;;;18.12;31.97
35892;BME280;21993;42.672;23.296;2024-02-15T12:50:32;95047.31;;;17.99;31.99
35892;BME280;21993;42.672;23.296;2024-02-15T12:52:59;95052.88;;;17.81;32.12
35892;BME280;21993;42.672;23.296;2024-02-15T12:55:35;95057.22;;;17.74;32.43
35892;BME280;21993;42.672;23.296;2024-02-15T12:58:05;95055.41;;;17.75;32.73
35892;BME280;21993;42.672;23.296;2024-02-15T13:00:35;95062.38;;;17.59;32.85
35892;BME280;21993;42.672;23.296;2024-02-15T13:03:06;95058.44;;;17.31;33.03
35892;BME280;21993;42.672;23.296;2024-02-15T13:05:36;95056.81;;;17.05;33.23
35892;BME280;21993;42.672;23.296;2024-02-15T13:08:02;95054.66;;;16.93;33.77
35892;BME280;21993;42.672;23.296;2024-02-15T13:10:29;95059.78;;;16.78;34.03
35892;BME280;21993;42.672;23.296;2024-02-15T13:12:57;95060.13;;;16.83;34.24
35892;BME280;21993;42.672;23.296;2024-02-15T13:15:25;95057.91;;;16.54;34.31
35892;BME280;21993;42.672;23.296;2024-02-15T13:17:58;95056.91;;;16.55;34.22
35892;BME280;21993;42.672;23.296;2024-02-15T13:20:24;95062.38;;;16.45;34.22
35892;BME280;21993;42.672;23.296;2024-02-15T13:23:00;95048.09;;;16.30;34.31
35892;BME280;21993;42.672;23.296;2024-02-15T13:25:30;95051.91;;;16.27;35.05
35892;BME280;21993;42.672;23.296;2024-02-15T13:27:56;95051.38;;;16.16;35.01
35892;BME280;21993;42.672;23.296;2024-02-15T13:30:22;95055.34;;;16.20;35.00
35892;BME280;21993;42.672;23.296;2024-02-15T13:32:53;95041.72;;;15.98;35.37
35892;BME280;21993;42.672;23.296;2024-02-15T13:35:20;95043.31;;;15.83;35.38